sensor_id;sensor_type;location;lat;lon;timestamp;P1;durP1;ratioP1;P2;durP2;ratioP2
76626;SDS011;65519;53.230;10.390;2023-07-02T00:00:07;6.90;;;3.88;;
76626;SDS011;65519;53.230;10.390;2023-07-02T00:02:37;6.65;;;3.97;;
76626;SDS011;65519;53.230;10.390;2023-07-02T00:05:02;7.22;;;4.50;;
76626;SDS011;65519;53.230;10.390;2023-07-02T00:07:28;8.45;;;4.50;;
76626;SDS011;65519;53.230;10.390;2023-07-02T00:09:54;10.30;;;4.68;;
76626;SDS011;65519;53.230;10.390;2023-07-02T00:12:19;6.05;;;4.78;;
76626;SDS011;65519;53.230;10.390;2023-07-02T00:14:45;10.80;;;4.55;;
76626;SDS011;65519;53.230;10.390;2023-07-02T00:17:10;9.27;;;4.55;;
76626;SDS011;65519;53.230;10.390;2023-07-02T00:19:39;8.18;;;4.50;;
76626;SDS011;65519;53.230;10.390;2023-07-02T00:22:08;9.15;;;3.95;;
76626;SDS011;65519;53.230;10.390;2023-07-02T00:24:34;9.98;;;4.63;;
76626;SDS011;65519;53.230;10.390;2023-07-02T00:27:00;6.47;;;4.75;;
76626;SDS011;65519;53.230;10.390;2023-07-02T00:29:25;8.25;;;4.45;;
76626;SDS011;65519;53.230;10.390;2023-07-02T00:31:51;8.13;;;4.55;;
76626;SDS011;65519;53.230;10.390;2023-07-02T00:34:17;8.02;;;4.63;;
76626;SDS011;65519;53.230;10.390;2023-07-02T00:36:43;7.18;;;4.25;;
76626;SDS011;65519;53.230;10.390;2023-07-02T00:39:09;7.55;;;4.30;;
76626;SDS011;65519;53.230;10.390;2023-07-02T00:41:37;6.95;;;3.88;;
76626;SDS011;65519;53.230;10.390;2023-07-02T00:44:03;10.05;;;4.35;;
76626;SDS011;65519;53.230;10.390;2023-07-02T00:46:28;14.07;;;4.70;;
76626;SDS011;65519;53.230;10.390;2023-07-02T00:48:56;9.23;;;4.13;;
76626;SDS011;65519;53.230;10.390;2023-07-02T00:51:23;12.43;;;3.90;;
76626;SDS011;65519;53.230;10.390;2023-07-02T00:53:50;8.23;;;4.68;;
76626;SDS011;65519;53.230;10.390;2023-07-02T00:56:20;7.70;;;4.03;;
76626;SDS011;65519;53.230;10.390;2023-07-02T00:58:47;8.52;;;4.40;;
76626;SDS011;65519;53.230;10.390;2023-07-02T01:01:19;6.53;;;4.07;;
76626;SDS011;65519;53.230;10.390;2023-07-02T01:04:01;11.95;;;4.30;;
76626;SDS011;65519;53.230;10.390;2023-07-02T01:06:30;10.10;;;4.07;;
76626;SDS011;65519;53.230;10.390;2023-07-02T01:08:58;8.52;;;4.10;;
76626;SDS011;65519;53.230;10.390;2023-07-02T01:11:28;12.38;;;4.68;;
76626;SDS011;65519;53.230;10.390;2023-07-02T01:13:56;8.23;;;4.65;;
76626;SDS011;65519;53.230;10.390;2023-07-02T01:16:27;9.88;;;4.07;;
76626;SDS011;65519;53.230;10.390;2023-07-02T01:18:55;8.40;;;4.40;;
76626;SDS011;65519;53.230;10.390;2023-07-02T01:21:23;8.35;;;4.22;;
76626;SDS011;65519;53.230;10.390;2023-07-02T01:23:50;7.97;;;4.07;;
76626;SDS011;65519;53.230;10.390;2023-07-02T01:26:16;10.02;;;4.32;;
76626;SDS011;65519;53.230;10.390;2023-07-02T01:28:41;9.15;;;5.22;;
76626;SDS011;65519;53.230;10.390;2023-07-02T01:31:07;8.43;;;4.70;;
76626;SDS011;65519;53.230;10.390;2023-07-02T01:33:32;8.60;;;4.28;;
76626;SDS011;65519;53.230;10.390;2023-07-02T01:35:58;9.95;;;4.30;;
76626;SDS011;65519;53.230;10.390;2023-07-02T01:38:23;9.65;;;4.80;;
76626;SDS011;65519;53.230;10.390;2023-07-02T01:40:49;6.65;;;4.38;;
76626;SDS011;65519;53.230;10.390;2023-07-02T01:43:14;7.07;;;4.40;;
76626;SDS011;65519;53.230;10.390;2023-07-02T01:45:41;6.68;;;4.63;;
76626;SDS011;65519;53.230;10.390;2023-07-02T01:48:07;9.73;;;4.72;;
76626;SDS011;65519;53.230;10.390;2023-07-02T01:50:32;7.10;;;4.40;;
76626;SDS011;65519;53.230;10.390;2023-07-02T01:52:58;7.30;;;4.68;;
76626;SDS011;65519;53.230;10.390;2023-07-02T01:55:25;12.60;;;5.68;;
76626;SDS011;65519;53.230;10.390;2023-07-02T01:57:50;8.38;;;4.65;;
76626;SDS011;65519;53.230;10.390;2023-07-02T02:00:16;8.45;;;4.95;;
76626;SDS011;65519;53.230;10.390;2023-07-02T02:02:42;11.50;;;4.60;;
76626;SDS011;65519;53.230;10.390;2023-07-02T02:05:08;7.38;;;4.75;;
76626;SDS011;65519;53.230;10.390;2023-07-02T02:07:35;6.72;;;4.30;;
76626;SDS011;65519;53.230;10.390;2023-07-02T02:10:02;8.15;;;4.43;;
76626;SDS011;65519;53.230;10.390;2023-07-02T02:14:56;9.85;;;4.55;;
76626;SDS011;65519;53.230;10.390;2023-07-02T02:17:22;13.60;;;4.95;;
76626;SDS011;65519;53.230;10.390;2023-07-02T02:19:49;7.05;;;4.57;;
76626;SDS011;65519;53.230;10.390;2023-07-02T02:22:14;9.48;;;4.72;;
76626;SDS011;65519;53.230;10.390;2023-07-02T02:24:40;11.60;;;4.85;;
76626;SDS011;65519;53.230;10.390;2023-07-02T02:27:05;9.88;;;4.70;;
76626;SDS011;65519;53.230;10.390;2023-07-02T02:29:31;10.90;;;4.95;;
76626;SDS011;65519;53.230;10.390;2023-07-02T02:31:57;8.57;;;4.63;;
76626;SDS011;65519;53.230;10.390;2023-07-02T02:34:22;10.70;;;4.63;;
76626;SDS011;65519;53.230;10.390;2023-07-02T02:36:48;8.52;;;4.50;;
76626;SDS011;65519;53.230;10.390;2023-07-02T02:39:13;8.65;;;4.85;;
76626;SDS011;65519;53.230;10.390;2023-07-02T02:41:39;11.35;;;4.80;;
76626;SDS011;65519;53.230;10.390;2023-07-02T02:44:05;11.68;;;4.70;;
76626;SDS011;65519;53.230;10.390;2023-07-02T02:46:30;6.63;;;4.18;;
76626;SDS011;65519;53.230;10.390;2023-07-02T02:48:56;13.20;;;4.55;;
76626;SDS011;65519;53.230;10.390;2023-07-02T02:51:22;14.27;;;4.82;;
76626;SDS011;65519;53.230;10.390;2023-07-02T02:53:47;6.97;;;4.07;;
76626;SDS011;65519;53.230;10.390;2023-07-02T02:56:13;7.85;;;4.30;;
76626;SDS011;65519;53.230;10.390;2023-07-02T02:58:39;8.48;;;4.38;;
76626;SDS011;65519;53.230;10.390;2023-07-02T03:01:05;7.47;;;4.22;;
76626;SDS011;65519;53.230;10.390;2023-07-02T03:03:38;13.40;;;4.60;;
76626;SDS011;65519;53.230;10.390;2023-07-02T03:06:04;7.22;;;4.18;;
76626;SDS011;65519;53.230;10.390;2023-07-02T03:08:30;9.90;;;4.45;;
76626;SDS011;65519;53.230;10.390;2023-07-02T03:10:56;8.32;;;4.22;;
76626;SDS011;65519;53.230;10.390;2023-07-02T03:13:22;9.60;;;4.25;;
76626;SDS011;65519;53.230;10.390;2023-07-02T03:15:47;8.93;;;3.72;;
76626;SDS011;65519;53.230;10.390;2023-07-02T03:18:13;9.15;;;4.72;;
76626;SDS011;65519;53.230;10.390;2023-07-02T03:20:38;8.98;;;4.32;;
76626;SDS011;65519;53.230;10.390;2023-07-02T03:23:04;7.65;;;4.38;;
76626;SDS011;65519;53.230;10.390;2023-07-02T03:25:29;9.57;;;4.15;;
76626;SDS011;65519;53.230;10.390;2023-07-02T03:27:54;10.82;;;4.80;;
76626;SDS011;65519;53.230;10.390;2023-07-02T03:30:20;9.52;;;4.85;;
76626;SDS011;65519;53.230;10.390;2023-07-02T03:32:45;10.23;;;4.45;;
76626;SDS011;65519;53.230;10.390;2023-07-02T03:35:11;8.63;;;5.15;;
76626;SDS011;65519;53.230;10.390;2023-07-02T03:37:36;7.28;;;4.30;;
76626;SDS011;65519;53.230;10.390;2023-07-02T03:40:02;10.00;;;4.03;;
76626;SDS011;65519;53.230;10.390;2023-07-02T03:42:27;10.88;;;4.55;;
76626;SDS011;65519;53.230;10.390;2023-07-02T03:44:53;12.85;;;5.30;;
76626;SDS011;65519;53.230;10.390;2023-07-02T03:47:18;8.73;;;4.25;;
76626;SDS011;65519;53.230;10.390;2023-07-02T03:49:44;10.52;;;5.10;;
76626;SDS011;65519;53.230;10.390;2023-07-02T03:52:10;10.38;;;4.35;;
76626;SDS011;65519;53.230;10.390;2023-07-02T03:54:35;7.57;;;4.15;;
76626;SDS011;65519;53.230;10.390;2023-07-02T03:57:01;11.60;;;4.82;;
76626;SDS011;65519;53.230;10.390;2023-07-02T03:59:27;10.52;;;4.78;;
76626;SDS011;65519;53.230;10.390;2023-07-02T04:01:52;10.63;;;4.50;;
76626;SDS011;65519;53.230;10.390;2023-07-02T04:04:18;11.30;;;5.18;;
76626;SDS011;65519;53.230;10.390;2023-07-02T04:06:43;10.25;;;4.78;;
76626;SDS011;65519;53.230;10.390;2023-07-02T04:09:09;7.63;;;4.32;;
76626;SDS011;65519;53.230;10.390;2023-07-02T04:11:34;10.77;;;5.45;;
76626;SDS011;65519;53.230;10.390;2023-07-02T04:14:00;14.50;;;4.97;;
76626;SDS011;65519;53.230;10.390;2023-07-02T04:16:25;9.93;;;4.30;;
76626;SDS011;65519;53.230;10.390;2023-07-02T04:18:50;10.02;;;4.65;;
76626;SDS011;65519;53.230;10.390;2023-07-02T04:21:16;15.32;;;6.65;;
76626;SDS011;65519;53.230;10.390;2023-07-02T04:23:41;12.27;;;4.82;;
76626;SDS011;65519;53.230;10.390;2023-07-02T04:26:07;7.28;;;3.78;;
76626;SDS011;65519;53.230;10.390;2023-07-02T04:28:32;10.93;;;4.90;;
76626;SDS011;65519;53.230;10.390;2023-07-02T04:30:58;9.77;;;4.63;;
76626;SDS011;65519;53.230;10.390;2023-07-02T04:33:23;12.18;;;5.65;;
76626;SDS011;65519;53.230;10.390;2023-07-02T04:35:48;10.60;;;4.78;;
76626;SDS011;65519;53.230;10.390;2023-07-02T04:38:14;14.68;;;5.65;;
76626;SDS011;65519;53.230;10.390;2023-07-02T04:40:39;15.30;;;6.30;;
76626;SDS011;65519;53.230;10.390;2023-07-02T04:43:06;13.27;;;5.43;;
76626;SDS011;65519;53.230;10.390;2023-07-02T04:45:32;10.88;;;4.70;;
76626;SDS011;65519;53.230;10.390;2023-07-02T04:48:02;14.48;;;5.47;;
76626;SDS011;65519;53.230;10.390;2023-07-02T04:50:28;11.50;;;4.30;;
76626;SDS011;65519;53.230;10.390;2023-07-02T04:52:54;16.98;;;6.43;;
76626;SDS011;65519;53.230;10.390;2023-07-02T04:55:20;15.90;;;6.93;;
76626;SDS011;65519;53.230;10.390;2023-07-02T04:57:46;10.82;;;5.00;;
76626;SDS011;65519;53.230;10.390;2023-07-02T05:00:12;17.40;;;5.55;;
76626;SDS011;65519;53.230;10.390;2023-07-02T05:02:38;12.45;;;5.32;;
76626;SDS011;65519;53.230;10.390;2023-07-02T05:05:04;14.90;;;5.35;;
76626;SDS011;65519;53.230;10.390;2023-07-02T05:07:29;12.50;;;5.30;;
76626;SDS011;65519;53.230;10.390;2023-07-02T05:09:55;11.38;;;4.90;;
76626;SDS011;65519;53.230;10.390;2023-07-02T05:12:20;12.95;;;5.20;;
76626;SDS011;65519;53.230;10.390;2023-07-02T05:14:45;11.90;;;5.03;;
76626;SDS011;65519;53.230;10.390;2023-07-02T05:17:11;12.18;;;5.07;;
76626;SDS011;65519;53.230;10.390;2023-07-02T05:19:39;11.13;;;5.47;;
76626;SDS011;65519;53.230;10.390;2023-07-02T05:22:06;12.07;;;4.50;;
76626;SDS011;65519;53.230;10.390;2023-07-02T05:24:31;14.55;;;5.55;;
76626;SDS011;65519;53.230;10.390;2023-07-02T05:26:57;13.65;;;6.30;;
76626;SDS011;65519;53.230;10.390;2023-07-02T05:29:22;17.58;;;7.65;;
76626;SDS011;65519;53.230;10.390;2023-07-02T05:31:47;17.48;;;6.57;;
76626;SDS011;65519;53.230;10.390;2023-07-02T05:34:13;16.67;;;5.72;;
76626;SDS011;65519;53.230;10.390;2023-07-02T05:36:38;17.13;;;5.55;;
76626;SDS011;65519;53.230;10.390;2023-07-02T05:39:04;12.00;;;4.93;;
76626;SDS011;65519;53.230;10.390;2023-07-02T05:41:29;21.00;;;6.53;;
76626;SDS011;65519;53.230;10.390;2023-07-02T05:43:59;19.30;;;6.50;;
76626;SDS011;65519;53.230;10.390;2023-07-02T05:46:25;16.25;;;6.32;;
76626;SDS011;65519;53.230;10.390;2023-07-02T05:48:50;15.00;;;5.15;;
76626;SDS011;65519;53.230;10.390;2023-07-02T05:51:22;15.07;;;5.07;;
76626;SDS011;65519;53.230;10.390;2023-07-02T05:53:49;11.93;;;5.43;;
76626;SDS011;65519;53.230;10.390;2023-07-02T05:56:15;14.45;;;5.20;;
76626;SDS011;65519;53.230;10.390;2023-07-02T05:58:41;19.05;;;6.70;;
76626;SDS011;65519;53.230;10.390;2023-07-02T06:01:06;18.65;;;6.70;;
76626;SDS011;65519;53.230;10.390;2023-07-02T06:03:32;14.18;;;5.57;;
76626;SDS011;65519;53.230;10.390;2023-07-02T06:05:58;16.98;;;6.35;;
76626;SDS011;65519;53.230;10.390;2023-07-02T06:08:23;12.82;;;5.93;;
76626;SDS011;65519;53.230;10.390;2023-07-02T06:10:49;19.65;;;5.25;;
76626;SDS011;65519;53.230;10.390;2023-07-02T06:13:14;14.55;;;5.50;;
76626;SDS011;65519;53.230;10.390;2023-07-02T06:15:40;12.98;;;5.50;;
76626;SDS011;65519;53.230;10.390;2023-07-02T06:18:06;16.02;;;5.07;;
76626;SDS011;65519;53.230;10.390;2023-07-02T06:20:31;12.88;;;5.22;;
76626;SDS011;65519;53.230;10.390;2023-07-02T06:22:57;13.55;;;5.10;;
76626;SDS011;65519;53.230;10.390;2023-07-02T06:25:22;12.48;;;5.30;;
76626;SDS011;65519;53.230;10.390;2023-07-02T06:27:48;24.17;;;5.50;;
76626;SDS011;65519;53.230;10.390;2023-07-02T06:30:13;15.57;;;4.80;;
76626;SDS011;65519;53.230;10.390;2023-07-02T06:32:39;18.33;;;5.40;;
76626;SDS011;65519;53.230;10.390;2023-07-02T06:35:05;17.25;;;5.35;;
76626;SDS011;65519;53.230;10.390;2023-07-02T06:37:31;17.73;;;5.43;;
76626;SDS011;65519;53.230;10.390;2023-07-02T06:39:57;14.13;;;5.63;;
76626;SDS011;65519;53.230;10.390;2023-07-02T06:42:24;15.57;;;5.88;;
76626;SDS011;65519;53.230;10.390;2023-07-02T06:44:49;17.38;;;6.35;;
76626;SDS011;65519;53.230;10.390;2023-07-02T06:47:15;17.88;;;6.15;;
76626;SDS011;65519;53.230;10.390;2023-07-02T06:49:40;20.23;;;5.97;;
76626;SDS011;65519;53.230;10.390;2023-07-02T06:52:06;18.00;;;5.55;;
76626;SDS011;65519;53.230;10.390;2023-07-02T06:54:31;17.38;;;5.68;;
76626;SDS011;65519;53.230;10.390;2023-07-02T06:56:57;17.33;;;6.18;;
76626;SDS011;65519;53.230;10.390;2023-07-02T06:59:22;13.45;;;5.75;;
76626;SDS011;65519;53.230;10.390;2023-07-02T07:01:51;17.55;;;6.03;;
76626;SDS011;65519;53.230;10.390;2023-07-02T07:04:16;21.00;;;7.80;;
76626;SDS011;65519;53.230;10.390;2023-07-02T07:06:42;26.05;;;8.30;;
76626;SDS011;65519;53.230;10.390;2023-07-02T07:09:08;48.33;;;21.23;;
76626;SDS011;65519;53.230;10.390;2023-07-02T07:11:34;26.35;;;10.23;;
76626;SDS011;65519;53.230;10.390;2023-07-02T07:13:59;48.58;;;19.33;;
76626;SDS011;65519;53.230;10.390;2023-07-02T07:16:25;22.63;;;8.85;;
76626;SDS011;65519;53.230;10.390;2023-07-02T07:18:50;16.08;;;5.90;;
76626;SDS011;65519;53.230;10.390;2023-07-02T07:21:15;18.52;;;6.30;;
76626;SDS011;65519;53.230;10.390;2023-07-02T07:23:41;18.10;;;5.93;;
76626;SDS011;65519;53.230;10.390;2023-07-02T07:26:06;16.63;;;5.30;;
76626;SDS011;65519;53.230;10.390;2023-07-02T07:28:32;13.95;;;6.53;;
76626;SDS011;65519;53.230;10.390;2023-07-02T07:30:57;15.02;;;5.55;;
76626;SDS011;65519;53.230;10.390;2023-07-02T07:33:23;21.63;;;7.57;;
76626;SDS011;65519;53.230;10.390;2023-07-02T07:35:49;26.17;;;11.60;;
76626;SDS011;65519;53.230;10.390;2023-07-02T07:38:15;27.98;;;11.38;;
76626;SDS011;65519;53.230;10.390;2023-07-02T07:40:41;18.73;;;8.38;;
76626;SDS011;65519;53.230;10.390;2023-07-02T07:43:07;20.13;;;7.07;;
76626;SDS011;65519;53.230;10.390;2023-07-02T07:45:33;28.50;;;12.90;;
76626;SDS011;65519;53.230;10.390;2023-07-02T07:47:58;24.55;;;10.05;;
76626;SDS011;65519;53.230;10.390;2023-07-02T07:50:24;15.13;;;6.05;;
76626;SDS011;65519;53.230;10.390;2023-07-02T07:52:49;19.20;;;6.15;;
76626;SDS011;65519;53.230;10.390;2023-07-02T07:55:16;21.92;;;6.90;;
76626;SDS011;65519;53.230;10.390;2023-07-02T07:57:42;16.52;;;6.45;;
76626;SDS011;65519;53.230;10.390;2023-07-02T08:00:07;20.20;;;6.20;;
76626;SDS011;65519;53.230;10.390;2023-07-02T08:02:47;20.95;;;7.15;;
76626;SDS011;65519;53.230;10.390;2023-07-02T08:05:12;22.52;;;8.73;;
76626;SDS011;65519;53.230;10.390;2023-07-02T08:07:38;23.10;;;6.95;;
76626;SDS011;65519;53.230;10.390;2023-07-02T08:10:05;14.55;;;6.40;;
76626;SDS011;65519;53.230;10.390;2023-07-02T08:12:32;14.90;;;5.88;;
76626;SDS011;65519;53.230;10.390;2023-07-02T08:14:58;20.33;;;6.40;;
76626;SDS011;65519;53.230;10.390;2023-07-02T08:17:24;17.35;;;6.68;;
76626;SDS011;65519;53.230;10.390;2023-07-02T08:19:49;19.05;;;6.35;;
76626;SDS011;65519;53.230;10.390;2023-07-02T08:22:15;20.48;;;6.93;;
76626;SDS011;65519;53.230;10.390;2023-07-02T08:24:40;22.25;;;9.30;;
76626;SDS011;65519;53.230;10.390;2023-07-02T08:27:06;36.67;;;16.58;;
76626;SDS011;65519;53.230;10.390;2023-07-02T08:29:31;30.85;;;14.38;;
76626;SDS011;65519;53.230;10.390;2023-07-02T08:31:57;20.85;;;10.85;;
76626;SDS011;65519;53.230;10.390;2023-07-02T08:34:23;16.08;;;6.05;;
76626;SDS011;65519;53.230;10.390;2023-07-02T08:36:48;16.48;;;5.95;;
76626;SDS011;65519;53.230;10.390;2023-07-02T08:39:14;16.60;;;6.13;;
76626;SDS011;65519;53.230;10.390;2023-07-02T08:41:47;19.10;;;6.18;;
76626;SDS011;65519;53.230;10.390;2023-07-02T08:44:13;11.18;;;5.63;;
76626;SDS011;65519;53.230;10.390;2023-07-02T08:46:40;14.20;;;6.15;;
76626;SDS011;65519;53.230;10.390;2023-07-02T08:49:07;13.70;;;5.22;;
76626;SDS011;65519;53.230;10.390;2023-07-02T08:51:33;17.95;;;6.55;;
76626;SDS011;65519;53.230;10.390;2023-07-02T08:53:59;13.68;;;5.97;;
76626;SDS011;65519;53.230;10.390;2023-07-02T08:56:25;33.88;;;14.15;;
76626;SDS011;65519;53.230;10.390;2023-07-02T08:58:52;15.35;;;6.65;;
76626;SDS011;65519;53.230;10.390;2023-07-02T09:01:17;23.30;;;7.00;;
76626;SDS011;65519;53.230;10.390;2023-07-02T09:03:43;21.55;;;5.35;;
76626;SDS011;65519;53.230;10.390;2023-07-02T09:06:09;12.30;;;4.82;;
76626;SDS011;65519;53.230;10.390;2023-07-02T09:08:35;17.27;;;5.68;;
76626;SDS011;65519;53.230;10.390;2023-07-02T09:11:05;13.73;;;5.97;;
76626;SDS011;65519;53.230;10.390;2023-07-02T09:13:31;15.48;;;6.03;;
76626;SDS011;65519;53.230;10.390;2023-07-02T09:21:25;16.42;;;5.65;;
76626;SDS011;65519;53.230;10.390;2023-07-02T09:26:50;16.55;;;5.63;;
76626;SDS011;65519;53.230;10.390;2023-07-02T09:29:18;18.38;;;4.85;;
76626;SDS011;65519;53.230;10.390;2023-07-02T09:31:54;46.17;;;20.13;;
76626;SDS011;65519;53.230;10.390;2023-07-02T09:34:25;26.05;;;12.30;;
76626;SDS011;65519;53.230;10.390;2023-07-02T09:36:52;18.25;;;8.43;;
76626;SDS011;65519;53.230;10.390;2023-07-02T09:39:25;14.05;;;5.72;;
76626;SDS011;65519;53.230;10.390;2023-07-02T09:41:52;12.30;;;5.25;;
76626;SDS011;65519;53.230;10.390;2023-07-02T09:44:19;13.02;;;6.00;;
76626;SDS011;65519;53.230;10.390;2023-07-02T09:46:45;12.48;;;5.35;;
76626;SDS011;65519;53.230;10.390;2023-07-02T09:49:18;12.45;;;5.53;;
76626;SDS011;65519;53.230;10.390;2023-07-02T09:51:47;13.23;;;5.20;;
76626;SDS011;65519;53.230;10.390;2023-07-02T09:54:13;15.43;;;5.43;;
76626;SDS011;65519;53.230;10.390;2023-07-02T09:56:39;12.98;;;5.55;;
76626;SDS011;65519;53.230;10.390;2023-07-02T09:59:05;11.40;;;5.35;;
76626;SDS011;65519;53.230;10.390;2023-07-02T10:01:30;14.63;;;5.10;;
76626;SDS011;65519;53.230;10.390;2023-07-02T10:03:56;12.18;;;5.47;;
76626;SDS011;65519;53.230;10.390;2023-07-02T10:06:22;12.18;;;5.60;;
76626;SDS011;65519;53.230;10.390;2023-07-02T10:08:53;15.43;;;5.50;;
76626;SDS011;65519;53.230;10.390;2023-07-02T10:11:20;11.02;;;4.80;;
76626;SDS011;65519;53.230;10.390;2023-07-02T10:13:45;15.10;;;5.72;;
76626;SDS011;65519;53.230;10.390;2023-07-02T10:16:11;12.52;;;4.50;;
76626;SDS011;65519;53.230;10.390;2023-07-02T10:18:38;12.18;;;4.22;;
76626;SDS011;65519;53.230;10.390;2023-07-02T10:21:14;12.20;;;4.95;;
76626;SDS011;65519;53.230;10.390;2023-07-02T10:23:40;12.73;;;4.70;;
76626;SDS011;65519;53.230;10.390;2023-07-02T10:26:09;9.88;;;4.43;;
76626;SDS011;65519;53.230;10.390;2023-07-02T10:28:59;9.98;;;4.03;;
76626;SDS011;65519;53.230;10.390;2023-07-02T10:31:26;11.65;;;5.60;;
76626;SDS011;65519;53.230;10.390;2023-07-02T10:33:51;26.73;;;11.68;;
76626;SDS011;65519;53.230;10.390;2023-07-02T10:36:18;17.65;;;8.57;;
76626;SDS011;65519;53.230;10.390;2023-07-02T10:38:44;8.90;;;3.85;;
76626;SDS011;65519;53.230;10.390;2023-07-02T10:41:10;10.52;;;3.90;;
76626;SDS011;65519;53.230;10.390;2023-07-02T10:43:35;14.68;;;5.57;;
76626;SDS011;65519;53.230;10.390;2023-07-02T10:46:01;11.18;;;3.97;;
76626;SDS011;65519;53.230;10.390;2023-07-02T10:48:27;8.60;;;3.80;;
76626;SDS011;65519;53.230;10.390;2023-07-02T10:50:53;11.73;;;3.78;;
76626;SDS011;65519;53.230;10.390;2023-07-02T10:53:19;11.40;;;4.43;;
76626;SDS011;65519;53.230;10.390;2023-07-02T10:55:46;13.07;;;4.57;;
76626;SDS011;65519;53.230;10.390;2023-07-02T10:58:18;12.43;;;4.88;;
76626;SDS011;65519;53.230;10.390;2023-07-02T11:00:44;12.80;;;4.70;;
76626;SDS011;65519;53.230;10.390;2023-07-02T11:03:23;14.20;;;4.90;;
76626;SDS011;65519;53.230;10.390;2023-07-02T11:05:50;11.30;;;4.60;;
76626;SDS011;65519;53.230;10.390;2023-07-02T11:08:17;12.43;;;4.25;;
76626;SDS011;65519;53.230;10.390;2023-07-02T11:10:43;10.70;;;5.13;;
76626;SDS011;65519;53.230;10.390;2023-07-02T11:13:18;13.15;;;5.50;;
76626;SDS011;65519;53.230;10.390;2023-07-02T11:15:45;16.30;;;5.13;;
76626;SDS011;65519;53.230;10.390;2023-07-02T11:18:15;69.70;;;28.75;;
76626;SDS011;65519;53.230;10.390;2023-07-02T11:20:42;50.90;;;24.20;;
76626;SDS011;65519;53.230;10.390;2023-07-02T11:23:18;16.95;;;6.38;;
76626;SDS011;65519;53.230;10.390;2023-07-02T11:25:57;29.83;;;13.10;;
76626;SDS011;65519;53.230;10.390;2023-07-02T11:28:24;10.48;;;4.68;;
76626;SDS011;65519;53.230;10.390;2023-07-02T11:30:50;12.52;;;4.53;;
76626;SDS011;65519;53.230;10.390;2023-07-02T11:33:15;10.63;;;4.70;;
76626;SDS011;65519;53.230;10.390;2023-07-02T11:35:41;15.00;;;5.18;;
76626;SDS011;65519;53.230;10.390;2023-07-02T11:38:08;9.60;;;4.68;;
76626;SDS011;65519;53.230;10.390;2023-07-02T11:40:35;18.15;;;5.45;;
76626;SDS011;65519;53.230;10.390;2023-07-02T11:43:01;12.48;;;4.82;;
76626;SDS011;65519;53.230;10.390;2023-07-02T11:45:27;12.60;;;4.82;;
76626;SDS011;65519;53.230;10.390;2023-07-02T11:47:53;21.92;;;11.30;;
76626;SDS011;65519;53.230;10.390;2023-07-02T11:50:19;23.90;;;12.07;;
76626;SDS011;65519;53.230;10.390;2023-07-02T11:52:44;16.92;;;10.00;;
76626;SDS011;65519;53.230;10.390;2023-07-02T11:55:10;14.18;;;6.15;;
76626;SDS011;65519;53.230;10.390;2023-07-02T11:57:36;10.27;;;4.25;;
76626;SDS011;65519;53.230;10.390;2023-07-02T12:00:01;10.15;;;4.55;;
76626;SDS011;65519;53.230;10.390;2023-07-02T12:02:27;11.50;;;5.07;;
76626;SDS011;65519;53.230;10.390;2023-07-02T12:04:53;12.63;;;4.10;;
76626;SDS011;65519;53.230;10.390;2023-07-02T12:07:19;10.10;;;4.07;;
76626;SDS011;65519;53.230;10.390;2023-07-02T12:09:44;11.32;;;3.60;;
76626;SDS011;65519;53.230;10.390;2023-07-02T12:12:10;9.25;;;3.72;;
76626;SDS011;65519;53.230;10.390;2023-07-02T12:14:36;8.20;;;3.55;;
76626;SDS011;65519;53.230;10.390;2023-07-02T12:17:02;9.48;;;3.83;;
76626;SDS011;65519;53.230;10.390;2023-07-02T12:19:29;6.88;;;3.55;;
76626;SDS011;65519;53.230;10.390;2023-07-02T12:21:54;9.80;;;4.35;;
76626;SDS011;65519;53.230;10.390;2023-07-02T12:24:20;10.98;;;4.47;;
76626;SDS011;65519;53.230;10.390;2023-07-02T12:26:45;10.93;;;4.35;;
76626;SDS011;65519;53.230;10.390;2023-07-02T12:29:11;11.48;;;4.68;;
76626;SDS011;65519;53.230;10.390;2023-07-02T12:31:36;11.93;;;3.58;;
76626;SDS011;65519;53.230;10.390;2023-07-02T12:34:02;13.23;;;4.88;;
76626;SDS011;65519;53.230;10.390;2023-07-02T12:36:28;9.65;;;4.13;;
76626;SDS011;65519;53.230;10.390;2023-07-02T12:38:53;11.98;;;3.67;;
76626;SDS011;65519;53.230;10.390;2023-07-02T12:41:19;12.43;;;4.00;;
76626;SDS011;65519;53.230;10.390;2023-07-02T12:43:44;9.00;;;3.55;;
76626;SDS011;65519;53.230;10.390;2023-07-02T12:46:09;10.15;;;4.00;;
76626;SDS011;65519;53.230;10.390;2023-07-02T12:48:35;5.47;;;3.47;;
76626;SDS011;65519;53.230;10.390;2023-07-02T12:51:00;6.65;;;3.30;;
76626;SDS011;65519;53.230;10.390;2023-07-02T12:53:26;11.05;;;3.53;;
76626;SDS011;65519;53.230;10.390;2023-07-02T12:55:52;8.63;;;3.10;;
76626;SDS011;65519;53.230;10.390;2023-07-02T12:58:18;11.13;;;3.60;;
76626;SDS011;65519;53.230;10.390;2023-07-02T13:00:44;7.25;;;3.10;;
76626;SDS011;65519;53.230;10.390;2023-07-02T13:03:11;11.07;;;3.28;;
76626;SDS011;65519;53.230;10.390;2023-07-02T13:05:37;10.23;;;3.80;;
76626;SDS011;65519;53.230;10.390;2023-07-02T13:08:03;8.05;;;3.05;;
76626;SDS011;65519;53.230;10.390;2023-07-02T13:10:29;8.77;;;3.35;;
76626;SDS011;65519;53.230;10.390;2023-07-02T13:12:55;10.05;;;3.13;;
76626;SDS011;65519;53.230;10.390;2023-07-02T13:15:21;13.30;;;4.15;;
76626;SDS011;65519;53.230;10.390;2023-07-02T13:17:47;8.50;;;3.42;;
76626;SDS011;65519;53.230;10.390;2023-07-02T13:20:13;8.15;;;3.97;;
76626;SDS011;65519;53.230;10.390;2023-07-02T13:22:39;11.35;;;4.28;;
76626;SDS011;65519;53.230;10.390;2023-07-02T13:25:05;11.88;;;3.60;;
76626;SDS011;65519;53.230;10.390;2023-07-02T13:27:31;9.75;;;3.53;;
76626;SDS011;65519;53.230;10.390;2023-07-02T13:29:57;9.35;;;3.50;;
76626;SDS011;65519;53.230;10.390;2023-07-02T13:32:22;12.88;;;4.45;;
76626;SDS011;65519;53.230;10.390;2023-07-02T13:34:48;12.07;;;3.25;;
76626;SDS011;65519;53.230;10.390;2023-07-02T13:37:13;9.18;;;3.33;;
76626;SDS011;65519;53.230;10.390;2023-07-02T13:39:43;7.20;;;3.35;;
76626;SDS011;65519;53.230;10.390;2023-07-02T13:42:09;8.68;;;3.20;;
76626;SDS011;65519;53.230;10.390;2023-07-02T13:44:34;7.85;;;3.13;;
76626;SDS011;65519;53.230;10.390;2023-07-02T13:46:59;7.95;;;3.22;;
76626;SDS011;65519;53.230;10.390;2023-07-02T13:49:25;11.15;;;3.83;;
76626;SDS011;65519;53.230;10.390;2023-07-02T13:51:50;10.52;;;3.03;;
76626;SDS011;65519;53.230;10.390;2023-07-02T13:54:16;7.25;;;3.08;;
76626;SDS011;65519;53.230;10.390;2023-07-02T13:56:43;5.63;;;2.90;;
76626;SDS011;65519;53.230;10.390;2023-07-02T13:59:09;15.02;;;3.47;;
76626;SDS011;65519;53.230;10.390;2023-07-02T14:01:35;7.75;;;3.03;;
76626;SDS011;65519;53.230;10.390;2023-07-02T14:04:01;7.88;;;3.25;;
76626;SDS011;65519;53.230;10.390;2023-07-02T14:06:27;7.70;;;3.17;;
76626;SDS011;65519;53.230;10.390;2023-07-02T14:08:53;9.48;;;3.53;;
76626;SDS011;65519;53.230;10.390;2023-07-02T14:11:19;11.80;;;3.10;;
76626;SDS011;65519;53.230;10.390;2023-07-02T14:13:45;11.50;;;3.08;;
76626;SDS011;65519;53.230;10.390;2023-07-02T14:16:10;13.63;;;3.20;;
76626;SDS011;65519;53.230;10.390;2023-07-02T14:18:36;17.92;;;3.58;;
76626;SDS011;65519;53.230;10.390;2023-07-02T14:21:01;8.93;;;3.38;;
76626;SDS011;65519;53.230;10.390;2023-07-02T14:23:28;10.40;;;3.05;;
76626;SDS011;65519;53.230;10.390;2023-07-02T14:25:53;6.55;;;3.17;;
76626;SDS011;65519;53.230;10.390;2023-07-02T14:28:18;9.18;;;2.97;;
76626;SDS011;65519;53.230;10.390;2023-07-02T14:30:44;12.70;;;3.40;;